Time;durP1;ratioP1;P1;durP2;ratioP2;P2;SDS_P1;SDS_P2;PMS_P1;PMS_P2;Temp;Humidity;BMP_temperature;BMP_pressure;BME280_temperature;BME280_humidity;BME280_pressure;Samples;Min_cycle;Max_cycle;Signal;HPM_P1;HPM_P2
2022/06/27 07:14:19;;;;;;;6.40;3.75;;;;;;;;;;6178457;23;20031;-83
2022/06/27 07:16:46;;;;;;;8.25;4.00;;;;;;;;;;6217416;23;20066;-82
2022/06/27 07:19:13;;;;;;;8.68;4.47;;;;;;;;;;6190726;23;20062;-83
2022/06/27 07:21:38;;;;;;;10.60;4.35;;;;;;;;;;6217350;23;20010;-82
2022/06/27 07:24:05;;;;;;;8.35;3.75;;;;;;;;;;6217008;23;20032;-88
2022/06/27 07:26:32;;;;;;;11.05;3.60;;;;;;;;;;6216997;23;20428;-83
2022/06/27 07:28:59;;;;;;;7.20;3.53;;;;;;;;;;6217010;23;20035;-82
2022/06/27 07:31:25;;;;;;;7.20;3.63;;;;;;;;;;6190270;23;20336;-83
2022/06/27 07:33:54;;;;;;;7.65;3.30;;;;;;;;;;6217153;23;20000;-82
2022/06/27 07:36:20;;;;;;;8.27;4.00;;;;;;;;;;6217132;23;20013;-83
2022/06/27 07:38:46;;;;;;;7.35;3.53;;;;;;;;;;6217024;23;20086;-82
2022/06/27 07:41:14;;;;;;;5.35;3.38;;;;;;;;;;6216707;23;20005;-82
2022/06/27 07:43:40;;;;;;;8.25;3.17;;;;;;;;;;6217145;23;20019;-82
2022/06/27 07:46:07;;;;;;;7.07;3.50;;;;;;;;;;6190034;23;20412;-83
2022/06/27 07:48:33;;;;;;;6.28;3.25;;;;;;;;;;6216897;23;20383;-82
2022/06/27 07:50:59;;;;;;;7.03;3.60;;;;;;;;;;6216899;23;20004;-82
2022/06/27 07:53:25;;;;;;;11.45;3.75;;;;;;;;;;6216754;23;20008;-82
2022/06/27 07:55:57;;;;;;;10.05;3.50;;;;;;;;;;6216650;23;20004;-82
2022/06/27 07:58:30;;;;;;;7.68;3.80;;;;;;;;;;6216851;23;20063;-82
2022/06/27 08:00:57;;;;;;;6.03;3.55;;;;;;;;;;6217113;23;20472;-82
2022/06/27 08:03:44;;;;;;;6.53;3.70;;;;;;;;;;6216723;23;20408;-82
2022/06/27 08:06:16;;;;;;;6.18;3.33;;;;;;;;;;6216487;23;20012;-82
2022/06/27 08:08:45;;;;;;;13.55;3.90;;;;;;;;;;6216528;23;20004;-82
2022/06/27 08:11:14;;;;;;;8.25;4.07;;;;;;;;;;6190054;23;20051;-81
2022/06/27 08:13:40;;;;;;;6.38;3.55;;;;;;;;;;6216549;23;20420;-82
2022/06/27 08:16:08;;;;;;;7.15;4.03;;;;;;;;;;6216661;23;20020;-82
2022/06/27 08:18:35;;;;;;;7.22;3.70;;;;;;;;;;6216357;23;20411;-82
2022/06/27 08:21:01;;;;;;;8.38;3.47;;;;;;;;;;6216541;23;20446;-82
2022/06/27 08:23:28;;;;;;;6.20;3.30;;;;;;;;;;6189911;23;20427;-82
2022/06/27 08:25:54;;;;;;;6.57;3.70;;;;;;;;;;6216237;23;20001;-82
2022/06/27 08:28:22;;;;;;;8.13;3.97;;;;;;;;;;6216488;23;20050;-82
2022/06/27 08:30:48;;;;;;;8.13;4.13;;;;;;;;;;6216574;23;20075;-82
2022/06/27 08:33:14;;;;;;;8.57;3.50;;;;;;;;;;6216416;23;20007;-82
2022/06/27 08:35:42;;;;;;;6.38;3.85;;;;;;;;;;6216435;23;20035;-89
2022/06/27 08:38:08;;;;;;;8.30;3.80;;;;;;;;;;6189794;23;20083;-82
2022/06/27 08:40:33;;;;;;;7.22;3.75;;;;;;;;;;6216560;23;20007;-81
2022/06/27 08:43:00;;;;;;;5.28;3.08;;;;;;;;;;6216414;23;20004;-81
2022/06/27 08:45:28;;;;;;;7.47;4.10;;;;;;;;;;6190009;23;20005;-82
2022/06/27 08:47:56;;;;;;;8.43;3.17;;;;;;;;;;6216095;23;20102;-83
2022/06/27 08:50:22;;;;;;;8.15;3.60;;;;;;;;;;6216109;23;20066;-81
2022/06/27 08:52:49;;;;;;;5.88;3.70;;;;;;;;;;6216041;23;20028;-80
2022/06/27 08:55:15;;;;;;;8.50;3.47;;;;;;;;;;6216123;23;20024;-81
2022/06/27 08:57:45;;;;;;;8.45;4.00;;;;;;;;;;6216389;23;20431;-81
2022/06/27 09:00:14;;;;;;;5.00;3.60;;;;;;;;;;6216170;23;20117;-81
2022/06/27 09:02:43;;;;;;;9.85;4.20;;;;;;;;;;6215879;23;20011;-81
2022/06/27 09:05:22;;;;;;;5.20;3.65;;;;;;;;;;6216116;23;20000;-82
2022/06/27 09:07:57;;;;;;;8.85;3.65;;;;;;;;;;6189581;23;20059;-80
2022/06/27 09:10:31;;;;;;;8.50;3.45;;;;;;;;;;6216197;23;20005;-80
2022/06/27 09:13:08;;;;;;;5.60;3.40;;;;;;;;;;6216021;23;20004;-80
2022/06/27 09:15:39;;;;;;;7.55;3.80;;;;;;;;;;6215793;23;20024;-82
2022/06/27 09:18:08;;;;;;;6.80;3.25;;;;;;;;;;6216226;23;20011;-81
2022/06/27 09:20:48;;;;;;;5.90;4.07;;;;;;;;;;6216248;23;19997;-82
2022/06/27 09:23:38;;;;;;;5.95;3.58;;;;;;;;;;6189510;23;20490;-82
2022/06/27 09:26:10;;;;;;;10.10;4.43;;;;;;;;;;6216236;23;20000;-82
2022/06/27 09:29:03;;;;;;;12.25;3.42;;;;;;;;;;6216292;23;20001;-80
2022/06/27 09:31:32;;;;;;;6.97;3.83;;;;;;;;;;6204935;23;20049;-80
2022/06/27 09:34:04;;;;;;;;;;;;;;;;;;6216561;23;20074;-81
2022/06/27 09:36:32;;;;;;;9.10;3.97;;;;;;;;;;6215873;23;19912;-80
2022/06/27 09:38:59;;;;;;;8.05;3.65;;;;;;;;;;6215747;23;20012;-80
2022/06/27 09:41:26;;;;;;;7.35;3.03;;;;;;;;;;6215867;23;20079;-81
2022/06/27 09:43:54;;;;;;;9.75;4.03;;;;;;;;;;6215950;23;20086;-80
2022/06/27 09:46:20;;;;;;;6.57;3.40;;;;;;;;;;6215673;23;20009;-78
2022/06/27 09:48:46;;;;;;;10.60;4.10;;;;;;;;;;6215832;23;20004;-78
2022/06/27 09:51:17;;;;;;;9.52;3.88;;;;;;;;;;6215786;23;20384;-79
2022/06/27 09:53:50;;;;;;;8.95;4.10;;;;;;;;;;6215919;23;20005;-80
2022/06/27 09:56:19;;;;;;;9.90;4.53;;;;;;;;;;6215637;23;20005;-79
2022/06/27 09:58:45;;;;;;;10.15;4.00;;;;;;;;;;6215873;23;20084;-78
2022/06/27 10:01:11;;;;;;;8.70;4.05;;;;;;;;;;6215877;23;20008;-78
2022/06/27 10:03:37;;;;;;;8.40;4.10;;;;;;;;;;6217268;23;20005;-78
2022/06/27 10:06:05;;;;;;;10.02;3.92;;;;;;;;;;6217667;23;20004;-78
2022/06/27 10:08:32;;;;;;;9.38;4.90;;;;;;;;;;6217811;23;20032;-78
2022/06/27 10:11:11;;;;;;;14.38;5.50;;;;;;;;;;6217767;23;20000;-78
2022/06/27 10:13:44;;;;;;;11.75;4.93;;;;;;;;;;6217495;23;20013;-77
2022/06/27 10:16:14;;;;;;;11.80;5.22;;;;;;;;;;6217634;23;20431;-77
2022/06/27 10:19:02;;;;;;;10.95;5.65;;;;;;;;;;6217832;23;20074;-78
2022/06/27 10:21:31;;;;;;;9.95;4.85;;;;;;;;;;6217602;23;20492;-77
2022/06/27 10:24:18;;;;;;;12.23;5.00;;;;;;;;;;6190971;23;20005;-78
2022/06/27 10:26:48;;;;;;;9.05;4.63;;;;;;;;;;6217364;23;20012;-77
2022/06/27 10:29:32;;;;;;;13.50;5.53;;;;;;;;;;6217967;23;20008;-77
2022/06/27 10:31:59;;;;;;;10.00;4.85;;;;;;;;;;6217040;23;20000;-78
2022/06/27 10:34:40;;;;;;;10.85;5.07;;;;;;;;;;6217549;23;20016;-78
2022/06/27 10:37:26;;;;;;;12.55;4.75;;;;;;;;;;6217445;23;20047;-78
2022/06/27 10:39:52;;;;;;;9.38;4.70;;;;;;;;;;6217439;23;20050;-78
2022/06/27 10:42:49;;;;;;;10.30;4.80;;;;;;;;;;6217217;23;20001;-79
2022/06/27 10:45:20;;;;;;;8.07;4.68;;;;;;;;;;6217536;23;20035;-78
2022/06/27 10:47:47;;;;;;;13.05;5.18;;;;;;;;;;6217408;23;20008;-78
2022/06/27 10:50:14;;;;;;;8.80;5.28;;;;;;;;;;6217127;23;20009;-78
2022/06/27 10:52:39;;;;;;;12.85;4.63;;;;;;;;;;6217202;23;20036;-77
2022/06/27 10:55:31;;;;;;;10.63;4.38;;;;;;;;;;6217119;23;20031;-78
2022/06/27 10:57:58;;;;;;;9.13;4.53;;;;;;;;;;6212792;23;20423;-78
2022/06/27 11:00:41;;;;;;;13.35;5.20;;;;;;;;;;6217636;23;20020;-77
2022/06/27 11:03:24;;;;;;;11.23;5.00;;;;;;;;;;6217387;23;20460;-78
2022/06/27 11:05:51;;;;;;;9.48;4.50;;;;;;;;;;6217402;23;20008;-78
2022/06/27 11:08:17;;;;;;;10.30;4.43;;;;;;;;;;6217083;23;20008;-78
2022/06/27 11:10:44;;;;;;;7.68;3.80;;;;;;;;;;6217591;23;20423;-78
2022/06/27 11:13:09;;;;;;;10.73;4.32;;;;;;;;;;6217290;23;20008;-78
2022/06/27 11:15:35;;;;;;;10.23;4.00;;;;;;;;;;6190289;23;20017;-77
2022/06/27 11:18:07;;;;;;;10.05;4.75;;;;;;;;;;6217079;23;20012;-76
2022/06/27 11:20:32;;;;;;;7.88;4.22;;;;;;;;;;6216922;23;19996;-76
2022/06/27 11:23:00;;;;;;;10.70;4.47;;;;;;;;;;6217241;23;20011;-76
2022/06/27 11:25:28;;;;;;;8.93;5.05;;;;;;;;;;6217166;23;20051;-76
2022/06/27 11:33:34;;;;;;;11.05;4.30;;;;;;;;;;6217221;23;20015;-77
2022/06/27 11:36:01;;;;;;;8.45;4.60;;;;;;;;;;6216735;23;20379;-77
2022/06/27 11:38:28;;;;;;;13.70;4.47;;;;;;;;;;6216882;23;20008;-77
2022/06/27 11:41:05;;;;;;;8.63;4.30;;;;;;;;;;6217013;23;20004;-77
2022/06/27 11:43:56;;;;;;;12.10;4.45;;;;;;;;;;6217170;23;20009;-78
2022/06/27 11:46:49;;;;;;;10.32;4.45;;;;;;;;;;6216802;23;20067;-78
2022/06/27 16:30:05;;;;;;;9.32;3.15;;;;;;;;;;6198143;23;20059;-78
2022/06/27 16:32:30;;;;;;;15.05;2.90;;;;;;;;;;6215837;23;20013;-78
2022/06/27 16:34:55;;;;;;;13.00;3.85;;;;;;;;;;6216409;23;20419;-78
2022/06/27 16:37:21;;;;;;;10.18;3.10;;;;;;;;;;6216518;23;20004;-78
2022/06/27 16:39:47;;;;;;;11.77;2.83;;;;;;;;;;6216427;23;20028;-79
2022/06/27 16:44:56;;;;;;;12.70;3.35;;;;;;;;;;6216449;23;20063;-77
2022/06/27 16:47:24;;;;;;;15.75;3.95;;;;;;;;;;6216207;23;20004;-77
2022/06/27 16:49:51;;;;;;;10.90;3.47;;;;;;;;;;6215943;23;20051;-77
2022/06/27 16:52:16;;;;;;;11.68;3.80;;;;;;;;;;6216491;23;20004;-77
2022/06/27 16:54:42;;;;;;;10.00;3.45;;;;;;;;;;6216054;23;20071;-76
2022/06/27 16:57:08;;;;;;;10.35;2.90;;;;;;;;;;6215768;23;20015;-77
2022/06/27 16:59:34;;;;;;;12.35;3.45;;;;;;;;;;6216359;23;20032;-76
2022/06/27 17:01:59;;;;;;;9.55;3.03;;;;;;;;;;6216456;23;20008;-76
2022/06/27 17:04:25;;;;;;;12.85;4.70;;;;;;;;;;6216335;23;20324;-83
2022/06/27 17:06:51;;;;;;;11.27;3.80;;;;;;;;;;6189203;23;20005;-81
2022/06/27 17:09:16;;;;;;;7.13;3.20;;;;;;;;;;6189506;23;20001;-81
2022/06/27 17:11:47;;;;;;;9.98;3.17;;;;;;;;;;6215974;23;20478;-80
2022/06/27 17:14:13;;;;;;;10.13;3.00;;;;;;;;;;6216485;23;20024;-78
2022/06/27 17:16:39;;;;;;;8.70;3.72;;;;;;;;;;6216048;23;20001;-78
2022/06/27 17:19:05;;;;;;;14.82;3.08;;;;;;;;;;6189526;23;20423;-78
2022/06/27 17:21:30;;;;;;;8.90;3.33;;;;;;;;;;6216388;23;20035;-79
2022/06/27 17:23:56;;;;;;;13.60;3.40;;;;;;;;;;6216066;23;20001;-79
2022/06/27 17:26:21;;;;;;;10.52;2.97;;;;;;;;;;6216372;23;20095;-76
2022/06/27 17:28:47;;;;;;;14.05;4.65;;;;;;;;;;6215816;23;20004;-77
2022/06/27 17:31:12;;;;;;;9.77;3.65;;;;;;;;;;6215989;23;20142;-77
2022/06/27 17:33:38;;;;;;;10.85;3.50;;;;;;;;;;6216113;23;20036;-78
2022/06/27 17:36:04;;;;;;;14.57;3.72;;;;;;;;;;6216128;23;20001;-77
2022/06/27 17:38:29;;;;;;;12.93;4.45;;;;;;;;;;6215893;23;20051;-79
2022/06/27 17:40:55;;;;;;;17.45;5.40;;;;;;;;;;6216371;23;20424;-77
2022/06/27 17:43:20;;;;;;;9.80;4.63;;;;;;;;;;6215931;23;20076;-78
2022/06/27 17:45:47;;;;;;;8.13;3.75;;;;;;;;;;6216361;23;20000;-79
2022/06/27 17:48:12;;;;;;;11.05;4.00;;;;;;;;;;6215785;23;20432;-79
2022/06/27 17:50:37;;;;;;;12.02;3.63;;;;;;;;;;6189484;23;20027;-79
2022/06/27 17:53:03;;;;;;;10.13;3.47;;;;;;;;;;6215875;23;20447;-77
2022/06/27 17:55:28;;;;;;;13.38;5.07;;;;;;;;;;6216229;23;20009;-79
2022/06/27 17:57:54;;;;;;;13.05;3.80;;;;;;;;;;6189265;23;20001;-80
2022/06/27 18:00:20;;;;;;;11.23;4.05;;;;;;;;;;6216329;23;20001;-79
2022/06/27 18:02:46;;;;;;;13.43;4.00;;;;;;;;;;6216028;23;20005;-78
2022/06/27 18:05:13;;;;;;;10.02;3.75;;;;;;;;;;6216022;23;20309;-77
2022/06/27 18:07:39;;;;;;;13.10;3.78;;;;;;;;;;6215645;23;20043;-79
2022/06/27 18:10:07;;;;;;;16.77;7.47;;;;;;;;;;6216151;23;20000;-78
2022/06/27 18:12:32;;;;;;;14.82;5.18;;;;;;;;;;6215867;23;20000;-80
2022/06/27 18:14:58;;;;;;;11.02;4.72;;;;;;;;;;6216076;23;20031;-82
2022/06/27 18:17:26;;;;;;;11.18;3.80;;;;;;;;;;6189895;23;20027;-80
2022/06/27 18:19:52;;;;;;;11.75;3.17;;;;;;;;;;6215913;23;20428;-79
2022/06/27 18:22:18;;;;;;;10.25;2.78;;;;;;;;;;6215813;23;20331;-79
2022/06/27 18:24:43;;;;;;;11.02;4.32;;;;;;;;;;6217106;23;20007;-79
2022/06/27 18:27:10;;;;;;;15.82;5.25;;;;;;;;;;6217619;23;20000;-77
2022/06/27 18:29:37;;;;;;;14.18;4.18;;;;;;;;;;6217720;23;20080;-79
2022/06/27 18:32:04;;;;;;;12.48;3.42;;;;;;;;;;6217533;23;20110;-78
2022/06/27 18:34:29;;;;;;;10.65;3.50;;;;;;;;;;6217720;23;20009;-81
2022/06/27 18:36:55;;;;;;;9.43;4.10;;;;;;;;;;6217343;23;20059;-81
2022/06/27 18:39:21;;;;;;;13.18;4.15;;;;;;;;;;6217912;23;20004;-80
2022/06/27 18:41:47;;;;;;;13.27;3.30;;;;;;;;;;6190849;23;20070;-82
2022/06/27 18:44:12;;;;;;;11.05;3.20;;;;;;;;;;6217891;23;20001;-79
2022/06/27 18:46:39;;;;;;;12.05;3.17;;;;;;;;;;6216985;23;20087;-78
2022/06/27 18:49:05;;;;;;;9.65;3.45;;;;;;;;;;6217195;23;20000;-79
2022/06/27 18:51:31;;;;;;;13.85;3.58;;;;;;;;;;6217315;23;20001;-81
2022/06/27 18:53:56;;;;;;;9.88;3.85;;;;;;;;;;6217398;23;20004;-81
2022/06/27 18:56:22;;;;;;;11.07;3.60;;;;;;;;;;6217259;23;20154;-81
2022/06/27 18:58:47;;;;;;;14.27;4.03;;;;;;;;;;6217504;23;20013;-79
2022/06/27 19:01:13;;;;;;;10.82;2.85;;;;;;;;;;6217419;23;20011;-80
2022/06/27 19:03:39;;;;;;;12.95;3.50;;;;;;;;;;6217328;23;20063;-80
2022/06/27 19:06:07;;;;;;;14.63;4.90;;;;;;;;;;6217299;23;20001;-81
2022/06/27 19:08:33;;;;;;;8.90;4.77;;;;;;;;;;6217074;23;20004;-80
2022/06/27 19:10:59;;;;;;;11.18;4.05;;;;;;;;;;6217457;23;20276;-80
2022/06/27 19:13:25;;;;;;;11.30;3.40;;;;;;;;;;6217323;23;20050;-79
2022/06/27 19:15:51;;;;;;;11.25;3.67;;;;;;;;;;6217401;23;20005;-78
2022/06/27 19:18:21;;;;;;;9.75;4.65;;;;;;;;;;6217320;23;20322;-80
2022/06/27 19:20:48;;;;;;;11.43;3.65;;;;;;;;;;6190479;23;20012;-78
2022/06/27 19:23:15;;;;;;;14.27;3.42;;;;;;;;;;6190481;23;20329;-78
2022/06/27 19:25:41;;;;;;;9.73;3.50;;;;;;;;;;6217506;23;20001;-80
2022/06/27 19:28:06;;;;;;;14.10;3.55;;;;;;;;;;6217000;23;20000;-81
2022/06/27 19:30:32;;;;;;;14.18;3.60;;;;;;;;;;6217608;23;20063;-80
2022/06/27 19:32:59;;;;;;;10.82;3.50;;;;;;;;;;6217121;23;20009;-79
2022/06/27 19:35:26;;;;;;;9.40;3.22;;;;;;;;;;6217162;23;20363;-79
2022/06/27 19:37:52;;;;;;;13.93;3.15;;;;;;;;;;6217261;23;20058;-79
2022/06/27 19:40:17;;;;;;;9.25;2.60;;;;;;;;;;6217082;23;20163;-80
2022/06/27 19:42:45;;;;;;;9.95;3.10;;;;;;;;;;6190432;23;20079;-81
2022/06/27 19:45:12;;;;;;;11.63;3.35;;;;;;;;;;6190294;23;20309;-80
2022/06/27 19:47:38;;;;;;;12.25;4.10;;;;;;;;;;6216872;23;20004;-79
2022/06/27 19:50:04;;;;;;;14.55;3.55;;;;;;;;;;6216765;23;20004;-80
2022/06/27 19:52:30;;;;;;;11.45;3.65;;;;;;;;;;6216930;23;20005;-80
2022/06/27 19:54:58;;;;;;;10.55;4.13;;;;;;;;;;6216829;23;20389;-80
2022/06/27 19:57:27;;;;;;;9.73;3.72;;;;;;;;;;6217100;23;20072;-80
2022/06/27 19:59:53;;;;;;;15.80;3.33;;;;;;;;;;6216975;23;20001;-80
2022/06/27 20:02:19;;;;;;;11.10;3.60;;;;;;;;;;6216728;23;20009;-80
2022/06/27 20:04:44;;;;;;;11.10;3.20;;;;;;;;;;6216733;23;20030;-80
2022/06/27 20:07:26;;;;;;;12.50;3.55;;;;;;;;;;6216691;23;20008;-80
2022/06/27 20:09:52;;;;;;;11.18;3.47;;;;;;;;;;6216610;23;20001;-80
2022/06/27 20:12:18;;;;;;;11.32;3.15;;;;;;;;;;6216800;23;19996;-80
2022/06/27 20:14:43;;;;;;;11.00;3.47;;;;;;;;;;6216632;23;20004;-80
2022/06/27 20:17:09;;;;;;;12.68;3.40;;;;;;;;;;6216420;23;20063;-79
2022/06/27 20:19:35;;;;;;;15.32;3.33;;;;;;;;;;6216972;23;20028;-80
2022/06/27 20:22:01;;;;;;;9.32;3.03;;;;;;;;;;6216618;23;20411;-81
2022/06/27 20:24:26;;;;;;;14.57;3.10;;;;;;;;;;6216687;23;20027;-81
2022/06/27 20:26:52;;;;;;;10.05;3.00;;;;;;;;;;6216266;23;20004;-80
2022/06/27 20:29:17;;;;;;;9.88;3.25;;;;;;;;;;6216530;23;20005;-80
2022/06/27 20:31:43;;;;;;;11.73;3.15;;;;;;;;;;6216242;23;20013;-79
2022/06/27 20:34:08;;;;;;;12.35;3.90;;;;;;;;;;6215971;23;20043;-80
2022/06/27 20:36:34;;;;;;;13.35;3.88;;;;;;;;;;6189753;23;20054;-81
2022/06/27 20:38:59;;;;;;;12.98;3.55;;;;;;;;;;6216643;23;20083;-81
2022/06/27 20:41:25;;;;;;;11.13;3.80;;;;;;;;;;6216666;23;20010;-81
2022/06/27 20:43:50;;;;;;;14.32;4.40;;;;;;;;;;6216492;23;20001;-80
2022/06/27 20:46:16;;;;;;;9.55;3.38;;;;;;;;;;6216002;23;20008;-79
2022/06/27 20:48:41;;;;;;;10.23;3.90;;;;;;;;;;6216270;23;20416;-83
2022/06/27 20:51:07;;;;;;;11.15;3.38;;;;;;;;;;6216473;23;20055;-83
2022/06/27 20:53:33;;;;;;;12.85;3.58;;;;;;;;;;6216335;23;20005;-84
2022/06/27 20:55:58;;;;;;;11.80;3.55;;;;;;;;;;6216578;23;20416;-84
2022/06/27 20:58:24;;;;;;;8.73;2.97;;;;;;;;;;6216230;23;20008;-84
2022/06/27 21:00:50;;;;;;;14.68;3.65;;;;;;;;;;6216145;23;20032;-83
2022/06/27 21:03:15;;;;;;;9.00;3.72;;;;;;;;;;6216813;23;20063;-83
2022/06/27 21:05:42;;;;;;;12.20;3.38;;;;;;;;;;6216796;23;20042;-84
2022/06/27 21:13:36;;;;;;;14.35;3.40;;;;;;;;;;6216616;23;20427;-84
2022/06/27 21:16:02;;;;;;;10.35;3.33;;;;;;;;;;6189704;23;20005;-85
2022/06/27 21:18:27;;;;;;;12.02;3.35;;;;;;;;;;6216233;23;20001;-85
2022/06/27 21:20:52;;;;;;;10.02;3.65;;;;;;;;;;6216203;23;19997;-83
2022/06/27 21:23:18;;;;;;;9.55;3.42;;;;;;;;;;6216071;23;19996;-84
2022/06/27 21:25:44;;;;;;;9.82;3.25;;;;;;;;;;6216165;23;20468;-83
2022/06/27 21:28:09;;;;;;;10.38;3.22;;;;;;;;;;6215608;23;20012;-85
2022/06/27 21:30:35;;;;;;;12.27;3.40;;;;;;;;;;6216229;23;20044;-84
2022/06/27 21:33:01;;;;;;;8.48;3.17;;;;;;;;;;6215976;23;20328;-85
